Time;durP1;ratioP1;P1;durP2;ratioP2;P2;SDS_P1;SDS_P2;PMS_P1;PMS_P2;Temp;Humidity;BMP_temperature;BMP_pressure;BME280_temperature;BME280_humidity;BME280_pressure;Samples;Min_cycle;Max_cycle;Signal;HPM_P1;HPM_P2
2022/03/16 00:00:00;;;;;;;;;;;0.70;79.90;;;-0.69;75.67;97236.22;4060487;34;19911;-84
2022/03/16 00:02:30;;;;;;;;;;;0.70;79.80;;;-0.70;75.59;97223.78;4039980;34;20244;-84
2022/03/16 00:04:59;;;;;;;;;;;0.70;79.80;;;-0.68;75.60;97229.00;4061400;34;20234;-84
2022/03/16 00:07:27;;;;;;;;;;;0.70;79.80;;;-0.69;75.20;97219.25;4061010;34;20203;-84
2022/03/16 00:09:56;;;;;;;;;;;0.70;79.70;;;-0.69;75.71;97220.06;4039293;34;19904;-84
2022/03/16 00:12:24;;;;;;;;;;;0.70;79.80;;;-0.70;75.89;97223.78;4083764;34;20215;-84
2022/03/16 00:14:53;;;;;;;;;;;0.70;79.90;;;-0.69;75.94;97216.56;4038590;34;19904;-84
2022/03/16 00:17:21;;;;;;;;;;;0.70;79.90;;;-0.70;75.76;97213.03;4060166;34;20211;-85
2022/03/16 00:19:51;;;;;;;;;;;0.70;79.90;;;-0.70;75.61;97210.34;4060175;34;20199;-85
2022/03/16 00:22:19;;;;;;;;;;;0.70;80.00;;;-0.70;75.98;97213.03;4083299;34;19904;-84
2022/03/16 00:24:48;;;;;;;;;;;0.70;80.00;;;-0.70;75.48;97188.00;4060284;34;20256;-85
2022/03/16 00:27:16;;;;;;;;;;;0.70;79.90;;;-0.70;75.52;97178.06;4060604;34;19911;-84
2022/03/16 00:29:47;;;;;;;;;;;0.70;79.80;;;-0.70;75.17;97169.19;4039806;34;20253;-84
2022/03/16 00:32:16;;;;;;;;;;;0.70;79.70;;;-0.70;75.55;97166.50;4039501;34;20522;-84
2022/03/16 00:34:44;;;;;;;;;;;0.70;79.80;;;-0.70;75.85;97158.41;4061123;34;19904;-85
2022/03/16 00:37:14;;;;;;;;;;;0.70;79.90;;;-0.69;75.90;97157.41;4038682;34;20228;-85
2022/03/16 00:39:43;;;;;;;;;;;0.70;80.00;;;-0.70;75.72;97155.72;4061071;34;19904;-85
2022/03/16 00:42:12;;;;;;;;;;;0.70;80.00;;;-0.70;75.26;97136.91;4061413;34;19904;-85
2022/03/16 00:44:40;;;;;;;;;;;0.70;80.00;;;-0.70;75.61;97135.03;4054796;34;20601;-85
2022/03/16 00:47:09;;;;;;;;;;;0.70;80.00;;;-0.70;75.85;97143.09;4031497;34;19904;-85
2022/03/16 00:49:38;;;;;;;;;;;0.70;80.10;;;-0.71;75.77;97133.38;4051911;34;20221;-85
2022/03/16 00:52:07;;;;;;;;;;;0.70;80.10;;;-0.69;75.55;97128.66;4053121;34;19911;-85
2022/03/16 00:54:37;;;;;;;;;;;0.70;80.00;;;-0.71;75.99;97130.69;4052421;34;19931;-85
2022/03/16 00:57:06;;;;;;;;;;;0.70;80.00;;;-0.69;75.89;97120.59;4029960;34;19939;-85
2022/03/16 00:59:34;;;;;;;;;;;0.70;80.00;;;-0.70;75.35;97121.59;4030073;34;20207;-85
2022/03/16 01:02:04;;;;;;;;;;;0.70;79.70;;;-0.69;75.70;97117.06;4029697;34;19904;-86
2022/03/16 01:04:32;;;;;;;;;;;0.70;79.60;;;-0.70;75.25;97124.28;4051503;34;20439;-85
2022/03/16 01:07:01;;;;;;;;;;;0.70;79.80;;;-0.70;75.61;97121.59;4051954;34;19904;-85
2022/03/16 01:09:29;;;;;;;;;;;0.70;79.80;;;-0.69;75.62;97117.91;4029272;34;20224;-85
2022/03/16 01:11:59;;;;;;;;;;;0.70;79.70;;;-0.70;75.47;97110.03;4052268;34;19904;-86
2022/03/16 01:14:30;;;;;;;;;;;0.70;79.80;;;-0.70;75.36;97101.94;4051731;34;19912;-85
2022/03/16 01:16:59;;;;;;;;;;;0.70;79.80;;;-0.69;75.65;97100.94;4050256;34;19904;-85
2022/03/16 01:19:28;;;;;;;;;;;0.70;79.90;;;-0.70;75.52;97094.72;4052512;34;20216;-86
2022/03/16 01:21:56;;;;;;;;;;;0.70;79.90;;;-0.71;75.71;97093.03;4051776;34;20209;-85
2022/03/16 01:24:25;;;;;;;;;;;0.70;80.00;;;-0.72;75.54;97086.00;4030340;34;20115;-85
2022/03/16 01:26:53;;;;;;;;;;;0.70;80.10;;;-0.70;75.84;97086.66;4029528;34;20210;-85
2022/03/16 01:29:24;;;;;;;;;;;0.70;80.00;;;-0.70;75.51;97083.97;4030652;34;19904;-85
2022/03/16 01:31:53;;;;;;;;;;;0.70;80.10;;;-0.70;75.60;97088.50;4035759;34;19904;-85
2022/03/16 01:34:22;;;;;;;;;;;0.70;80.10;;;-0.70;76.10;97078.56;4035986;34;20540;-86
2022/03/16 01:36:50;;;;;;;;;;;0.70;80.10;;;-0.70;75.67;97061.63;4058304;34;20199;-86
2022/03/16 01:39:22;;;;;;;;;;;0.70;80.10;;;-0.70;75.81;97064.31;4058451;34;20222;-85
2022/03/16 01:41:51;;;;;;;;;;;0.70;80.10;;;-0.71;75.80;97055.38;4037726;34;20452;-85
2022/03/16 01:44:42;;;;;;;;;;;0.70;80.10;;;-0.70;75.69;97062.44;4060762;34;19904;-85
2022/03/16 01:47:11;;;;;;;;;;;0.70;80.20;;;-0.71;75.85;97050.00;4038940;34;20512;-86
2022/03/16 01:49:41;;;;;;;;;;;0.70;79.90;;;-0.71;75.59;97036.56;4036394;34;20238;-85
2022/03/16 01:52:09;;;;;;;;;;;0.70;79.90;;;-0.70;75.39;97040.13;4036729;34;20217;-85
2022/03/16 01:54:39;;;;;;;;;;;0.70;79.80;;;-0.70;75.53;97032.03;4058447;34;20250;-85
2022/03/16 01:57:09;;;;;;;;;;;0.70;80.00;;;-0.71;75.47;97020.44;4035466;34;20203;-86
2022/03/16 01:59:38;;;;;;;;;;;0.70;79.80;;;-0.72;75.87;97013.41;4014622;34;20225;-85
2022/03/16 02:02:08;;;;;;;;;;;0.70;79.90;;;-0.71;75.72;97022.31;4036777;34;20116;-85
2022/03/16 02:04:37;;;;;;;;;;;0.70;80.10;;;-0.71;75.76;97027.69;4041052;34;19904;-86
2022/03/16 02:07:06;;;;;;;;;;;0.70;80.10;;;-0.70;75.74;97019.44;4061886;34;20213;-85
2022/03/16 02:09:34;;;;;;;;;;;0.70;80.10;;;-0.70;75.88;97016.72;4062939;34;20220;-86
2022/03/16 02:12:03;;;;;;;;;;;0.70;80.30;;;-0.71;75.79;97022.31;4063765;34;19927;-85
2022/03/16 02:14:31;;;;;;;;;;;0.70;80.10;;;-0.70;75.79;97030.19;4041045;34;19927;-85
2022/03/16 02:17:00;;;;;;;;;;;0.70;80.10;;;-0.71;75.39;97022.31;4060207;34;20220;-85
2022/03/16 02:19:30;;;;;;;;;;;0.70;80.00;;;-0.71;75.99;97009.69;4040276;34;19908;-85
2022/03/16 02:22:01;;;;;;;;;;;0.70;80.20;;;-0.72;75.80;97010.72;4038881;34;19904;-85
2022/03/16 02:24:31;;;;;;;;;;;0.70;80.10;;;-0.71;75.87;97020.44;4062087;34;19915;-85
2022/03/16 02:26:59;;;;;;;;;;;0.70;80.00;;;-0.71;75.86;97011.53;4062690;34;19915;-85
2022/03/16 02:29:29;;;;;;;;;;;0.70;80.00;;;-0.72;75.83;96999.97;4040370;34;20203;-85
2022/03/16 02:31:57;;;;;;;;;;;0.70;80.00;;;-0.70;75.50;96986.34;4040674;34;20215;-85
2022/03/16 02:34:26;;;;;;;;;;;0.70;79.90;;;-0.70;75.75;96997.91;4039303;34;20100;-85
2022/03/16 02:36:54;;;;;;;;;;;0.70;80.00;;;-0.71;76.07;96996.25;4039147;34;20221;-85
2022/03/16 02:39:23;;;;;;;;;;;0.70;80.10;;;-0.72;75.91;96966.84;4040821;34;19919;-85
2022/03/16 02:41:53;;;;;;;;;;;0.70;80.10;;;-0.71;75.86;96953.22;4040019;34;20209;-85
2022/03/16 02:44:22;;;;;;;;;;;0.70;80.00;;;-0.71;75.71;96947.03;4039405;34;19904;-86
2022/03/16 02:46:50;;;;;;;;;;;0.70;80.00;;;-0.72;75.87;96959.63;4038556;34;20221;-86
2022/03/16 02:49:19;;;;;;;;;;;0.70;80.10;;;-0.72;76.08;96953.41;4039655;34;19904;-85
2022/03/16 02:51:47;;;;;;;;;;;0.70;80.30;;;-0.71;75.87;96942.47;4061404;34;20454;-85
2022/03/16 02:54:16;;;;;;;;;;;0.70;80.20;;;-0.72;75.91;96924.69;4038014;34;20080;-85
2022/03/16 02:56:46;;;;;;;;;;;0.70;80.30;;;-0.72;75.94;96922.00;4059302;34;20232;-85
2022/03/16 02:59:16;;;;;;;;;;;0.70;80.20;;;-0.72;75.79;96923.84;4056037;34;19989;-85
2022/03/16 03:01:44;;;;;;;;;;;0.70;80.00;;;-0.71;75.72;96930.88;4032634;34;20217;-85
2022/03/16 03:04:13;;;;;;;;;;;0.70;80.20;;;-0.72;75.78;96934.59;4033149;34;19959;-85
2022/03/16 03:06:41;;;;;;;;;;;0.70;80.10;;;-0.71;75.74;96925.50;4033195;34;20204;-86
2022/03/16 03:09:10;;;;;;;;;;;0.70;80.10;;;-0.71;75.88;96922.81;4011624;34;19911;-85
2022/03/16 03:11:38;;;;;;;;;;;0.70;80.10;;;-0.72;75.56;96921.16;4033665;34;20215;-85
2022/03/16 03:14:07;;;;;;;;;;;0.70;80.00;;;-0.72;75.55;96913.09;4013988;34;19905;-86
2022/03/16 03:16:36;;;;;;;;;;;0.60;79.90;;;-0.72;75.90;96918.47;4034904;34;20248;-85
2022/03/16 03:19:05;;;;;;;;;;;0.60;80.00;;;-0.72;75.57;96913.94;4015721;34;20226;-85
2022/03/16 03:21:33;;;;;;;;;;;0.70;80.10;;;-0.72;75.36;96913.09;4062383;34;20087;-85
2022/03/16 03:24:02;;;;;;;;;;;0.70;80.00;;;-0.73;75.79;96895.28;4062038;34;20227;-86
2022/03/16 03:26:32;;;;;;;;;;;0.60;80.00;;;-0.72;75.74;96878.97;4063841;34;19927;-86
2022/03/16 03:29:00;;;;;;;;;;;0.60;79.90;;;-0.73;76.05;96893.44;4063574;34;20211;-85
2022/03/16 03:31:29;;;;;;;;;;;0.60;80.20;;;-0.72;75.98;96884.34;4040029;34;20578;-86
2022/03/16 03:33:59;;;;;;;;;;;0.70;80.10;;;-0.72;75.89;96880.81;4039691;34;19904;-86
2022/03/16 03:36:27;;;;;;;;;;;0.60;80.00;;;-0.72;75.92;96867.38;4060628;34;20092;-85
2022/03/16 03:38:56;;;;;;;;;;;0.60;80.00;;;-0.73;76.13;96869.25;4038289;34;19911;-85
2022/03/16 03:41:24;;;;;;;;;;;0.70;80.10;;;-0.74;75.91;96875.63;4036506;34;20508;-85
2022/03/16 03:43:53;;;;;;;;;;;0.60;80.10;;;-0.73;76.04;96874.63;4030362;34;19904;-85
2022/03/16 03:46:21;;;;;;;;;;;0.70;80.10;;;-0.73;75.57;96865.69;4352392;28;20203;-85
2022/03/16 03:48:50;;;;;;;;;;;0.60;80.00;;;-0.72;75.45;96862.84;4029776;34;19904;-85
2022/03/16 03:51:20;;;;;;;;;;;0.70;80.10;;;-0.72;75.81;96864.69;4049599;34;20208;-85
2022/03/16 03:53:48;;;;;;;;;;;0.70;80.20;;;-0.73;75.43;96866.56;4078707;34;20472;-85
2022/03/16 03:56:17;;;;;;;;;;;0.60;80.00;;;-0.75;75.27;96849.75;4040534;34;19908;-85
2022/03/16 03:58:45;;;;;;;;;;;0.60;79.90;;;-0.73;75.93;96858.50;4022941;34;20208;-84
2022/03/16 04:01:15;;;;;;;;;;;0.60;80.00;;;-0.74;75.70;96862.19;4001760;34;20194;-86
2022/03/16 04:03:44;;;;;;;;;;;0.60;80.00;;;-0.73;76.02;96847.72;4023676;34;20247;-86
2022/03/16 04:06:12;;;;;;;;;;;0.60;80.00;;;-0.73;75.51;96849.56;4040119;34;20221;-83
2022/03/16 04:08:43;;;;;;;;;;;0.60;79.90;;;-0.73;75.85;96847.72;4071316;34;19911;-84
2022/03/16 04:11:20;;;;;;;;;;;0.60;80.10;;;-0.73;75.92;96834.28;4028653;34;20225;-84
2022/03/16 04:16:56;;;;;;;;;;;0.60;79.90;;;-0.74;75.86;96840.69;4048326;34;20193;-84
2022/03/16 04:19:24;;;;;;;;;;;0.60;80.00;;;-0.73;75.71;96841.50;4070852;34;19904;-83
2022/03/16 04:21:53;;;;;;;;;;;0.60;80.10;;;-0.73;76.22;96846.88;4028380;34;20612;-85
2022/03/16 04:24:23;;;;;;;;;;;0.60;80.10;;;-0.74;75.80;96835.31;4028767;34;20107;-84
2022/03/16 04:26:51;;;;;;;;;;;0.70;80.10;;;-0.73;75.59;96842.34;4050537;34;20209;-85
2022/03/16 04:29:20;;;;;;;;;;;0.60;79.90;;;-0.74;75.75;96839.84;4053029;34;19904;-85
2022/03/16 04:31:48;;;;;;;;;;;0.60;79.90;;;-0.73;75.78;96847.72;4057134;34;20216;-85
2022/03/16 04:34:17;;;;;;;;;;;0.60;79.80;;;-0.73;75.61;96842.34;4034046;34;19915;-85
2022/03/16 04:36:45;;;;;;;;;;;0.70;79.80;;;-0.72;76.09;96844.03;4054444;34;20569;-85
2022/03/16 04:39:14;;;;;;;;;;;0.60;80.00;;;-0.74;75.74;96840.69;4052221;34;20238;-85
2022/03/16 04:41:44;;;;;;;;;;;0.60;80.10;;;-0.73;75.68;96842.34;4055501;34;19911;-84
2022/03/16 04:44:13;;;;;;;;;;;0.60;80.00;;;-0.72;75.78;96837.81;4057797;34;20127;-85
2022/03/16 04:46:41;;;;;;;;;;;0.60;80.00;;;-0.74;75.63;96835.31;4079557;34;20202;-84
2022/03/16 04:49:10;;;;;;;;;;;0.60;79.90;;;-0.73;75.57;96831.59;4035857;34;20208;-84
2022/03/16 04:51:40;;;;;;;;;;;0.60;79.90;;;-0.74;75.41;96829.94;4057711;34;20115;-84
2022/03/16 04:54:08;;;;;;;;;;;0.60;79.80;;;-0.74;75.43;96823.69;4057758;34;19905;-84
2022/03/16 04:56:37;;;;;;;;;;;0.60;79.80;;;-0.79;75.69;96825.09;4057473;34;20238;-85
2022/03/16 04:59:07;;;;;;;;;;;0.60;79.90;;;-0.78;75.71;96817.88;4058757;34;19911;-85
2022/03/16 05:01:35;;;;;;;;;;;0.60;80.00;;;-0.75;75.63;96825.56;4034882;34;20223;-86
2022/03/16 05:04:04;;;;;;;;;;;0.60;80.00;;;-0.73;75.69;96825.38;4057132;34;19904;-86
2022/03/16 05:06:32;;;;;;;;;;;0.60;79.90;;;-0.74;75.55;96832.63;4057055;34;20032;-84
2022/03/16 05:09:01;;;;;;;;;;;0.60;79.80;;;-0.74;75.67;96831.78;4057525;34;20207;-84
2022/03/16 05:11:29;;;;;;;;;;;0.60;79.90;;;-0.74;75.86;96838.00;4080241;34;20206;-85
2022/03/16 05:13:58;;;;;;;;;;;0.60;79.90;;;-0.74;75.47;96842.53;4057421;34;19904;-85
2022/03/16 05:16:28;;;;;;;;;;;0.60;79.90;;;-0.74;75.61;96838.00;4036265;34;20226;-86
2022/03/16 05:18:56;;;;;;;;;;;0.60;79.90;;;-0.79;75.96;96833.19;4059961;34;20206;-85
2022/03/16 05:21:25;;;;;;;;;;;0.60;79.90;;;-0.75;75.89;96836.31;4037830;34;19904;-85
2022/03/16 05:23:53;;;;;;;;;;;0.60;79.90;;;-0.78;75.38;96823.25;4059953;34;20289;-86
2022/03/16 05:26:22;;;;;;;;;;;0.60;80.80;;;-0.75;75.68;96839.00;4059667;34;19904;-86
2022/03/16 05:28:52;;;;;;;;;;;0.60;79.80;;;-0.75;75.78;96833.63;4060163;34;20207;-85
2022/03/16 05:31:28;;;;;;;;;;;0.60;79.90;;;-0.73;75.86;96836.13;4056638;34;19904;-85
2022/03/16 05:34:10;;;;;;;;;;;0.60;79.80;;;-0.74;75.78;96838.00;4034418;34;19912;-85
2022/03/16 05:36:39;;;;;;;;;;;0.60;79.90;;;-0.74;75.87;96840.69;4033355;34;19909;-85
2022/03/16 05:39:07;;;;;;;;;;;0.70;80.00;;;-0.74;75.66;96834.47;4056260;34;20219;-86
2022/03/16 05:41:36;;;;;;;;;;;0.60;79.90;;;-0.75;75.75;96827.41;4033707;34;20214;-86
2022/03/16 05:44:06;;;;;;;;;;;0.60;79.90;;;-0.74;75.58;96839.84;4033574;34;20111;-85
2022/03/16 05:46:36;;;;;;;;;;;0.60;79.90;;;-0.75;75.30;96843.53;4032791;34;20221;-85
2022/03/16 05:49:04;;;;;;;;;;;0.60;79.80;;;-0.74;75.79;96829.94;4055084;34;20222;-86
2022/03/16 05:51:33;;;;;;;;;;;0.60;79.90;;;-0.75;75.45;96822.88;4031459;34;19911;-86
2022/03/16 05:54:01;;;;;;;;;;;0.60;79.80;;;-0.74;75.58;96819.19;4053120;34;20457;-85
2022/03/16 05:56:31;;;;;;;;;;;0.60;79.80;;;-0.74;75.60;96829.06;4008035;34;20548;-85
2022/03/16 05:59:00;;;;;;;;;;;0.60;80.00;;;-0.77;75.82;96830.28;4007940;34;20236;-86
2022/03/16 06:01:28;;;;;;;;;;;0.60;80.00;;;-0.78;75.64;96834.00;4009072;34;19912;-85
2022/03/16 06:03:58;;;;;;;;;;;0.60;80.00;;;-0.74;75.68;96845.22;4009209;34;20244;-85
2022/03/16 06:06:29;;;;;;;;;;;0.60;80.00;;;-0.74;75.73;96837.16;4030563;34;20242;-85
2022/03/16 06:08:58;;;;;;;;;;;0.60;79.90;;;-0.74;75.71;96842.53;4035346;34;20199;-86
2022/03/16 06:11:26;;;;;;;;;;;0.60;79.80;;;-0.74;75.92;96840.69;4059599;34;20461;-85
2022/03/16 06:13:55;;;;;;;;;;;0.60;80.00;;;-0.74;75.41;96839.84;4080973;34;20191;-85
2022/03/16 06:16:23;;;;;;;;;;;0.60;79.80;;;-0.74;75.61;96835.31;4036580;34;20203;-85
2022/03/16 06:18:52;;;;;;;;;;;0.60;79.80;;;-0.77;75.85;96825.72;4036834;34;19904;-86
2022/03/16 06:21:21;;;;;;;;;;;0.60;79.80;;;-0.78;75.52;96829.47;4058443;34;20246;-85
2022/03/16 06:23:50;;;;;;;;;;;0.60;79.80;;;-0.74;75.55;96834.47;4058311;34;20213;-85
2022/03/16 06:26:19;;;;;;;;;;;0.70;80.00;;;-0.75;76.03;96833.63;4033907;34;20115;-85
2022/03/16 06:28:47;;;;;;;;;;;0.60;79.90;;;-0.73;75.47;96836.97;4052601;34;20221;-85
2022/03/16 06:31:16;;;;;;;;;;;0.60;79.80;;;-0.73;75.49;96831.59;4028222;34;19904;-86
2022/03/16 06:33:44;;;;;;;;;;;0.60;79.80;;;-0.73;75.58;96828.91;4027702;34;20199;-85
2022/03/16 06:36:13;;;;;;;;;;;0.60;80.00;;;-0.76;75.49;96821.22;4050121;34;19904;-86
2022/03/16 06:38:43;;;;;;;;;;;0.60;80.00;;;-0.73;75.37;96823.53;4051550;34;20212;-85
2022/03/16 06:41:11;;;;;;;;;;;0.70;79.90;;;-0.73;75.67;96828.06;4051225;34;20217;-85
2022/03/16 06:43:40;;;;;;;;;;;0.60;79.90;;;-0.72;75.79;96832.44;4051393;34;19939;-85
2022/03/16 06:46:08;;;;;;;;;;;0.70;79.90;;;-0.75;75.55;96830.94;4050877;34;19904;-85
2022/03/16 06:48:37;;;;;;;;;;;0.70;79.90;;;-0.72;75.76;96818.97;4024695;34;20231;-85
2022/03/16 06:51:06;;;;;;;;;;;0.70;79.90;;;-0.72;75.84;96817.16;4024571;34;19904;-86
2022/03/16 06:53:35;;;;;;;;;;;0.70;80.00;;;-0.71;75.20;96817.97;4025197;34;20561;-85
2022/03/16 06:56:05;;;;;;;;;;;0.70;79.80;;;-0.71;75.63;96821.47;4046787;34;20019;-85
2022/03/16 06:58:34;;;;;;;;;;;0.70;79.80;;;-0.71;75.73;96815.28;4024754;34;19904;-85
2022/03/16 07:01:02;;;;;;;;;;;0.70;80.10;;;-0.70;75.75;96822.31;4025327;34;20208;-84
2022/03/16 07:03:31;;;;;;;;;;;0.70;80.10;;;-0.72;75.61;96810.91;4025016;34;19915;-84
2022/03/16 07:06:00;;;;;;;;;;;0.70;80.00;;;-0.71;75.98;96818.78;4024716;34;20219;-84
2022/03/16 07:08:28;;;;;;;;;;;0.70;80.10;;;-0.70;75.78;96830.41;4054701;34;19904;-84
2022/03/16 07:10:57;;;;;;;;;;;0.70;80.10;;;-0.70;75.54;96825.00;4058561;34;20233;-84
2022/03/16 07:13:27;;;;;;;;;;;0.70;80.00;;;-0.72;75.82;96822.53;4058088;34;19926;-85
2022/03/16 07:15:55;;;;;;;;;;;0.70;80.30;;;-0.70;76.24;96831.22;4055859;34;19911;-84
2022/03/16 07:18:24;;;;;;;;;;;0.70;80.50;;;-0.70;76.05;96825.84;4030078;34;20223;-84
2022/03/16 07:20:52;;;;;;;;;;;0.70;80.30;;;-0.70;75.83;96831.22;4030148;34;19912;-85
2022/03/16 07:23:21;;;;;;;;;;;0.70;80.10;;;-0.69;75.91;96824.00;4035151;34;20224;-85
2022/03/16 07:25:50;;;;;;;;;;;0.70;80.20;;;-0.71;75.80;96821.47;4034833;34;20131;-84
2022/03/16 07:28:19;;;;;;;;;;;0.70;80.10;;;-0.69;76.30;96824.81;4030265;34;20206;-84
2022/03/16 07:30:49;;;;;;;;;;;0.70;80.30;;;-0.68;76.41;96822.97;4052370;34;19904;-85
2022/03/16 07:33:18;;;;;;;;;;;0.70;80.80;;;-0.70;76.39;96820.47;4030065;34;19904;-85
2022/03/16 07:35:48;;;;;;;;;;;0.70;80.60;;;-0.68;76.33;96829.19;4027923;34;19904;-86
2022/03/16 07:38:17;;;;;;;;;;;0.70;80.60;;;-0.71;76.40;96818.78;4051203;34;20209;-85
2022/03/16 07:40:46;;;;;;;;;;;0.70;80.70;;;-0.68;76.79;96823.81;4050356;34;19911;-84
2022/03/16 07:43:15;;;;;;;;;;;0.70;80.70;;;-0.68;76.77;96814.91;4028031;34;19904;-84
2022/03/16 07:45:43;;;;;;;;;;;0.70;81.10;;;-0.70;76.60;96807.00;4049841;34;20205;-84
2022/03/16 07:48:13;;;;;;;;;;;0.70;81.10;;;-0.68;76.78;96813.06;4028435;34;20267;-84
2022/03/16 07:50:42;;;;;;;;;;;0.70;81.20;;;-0.67;76.47;96813.91;4051109;34;19908;-85
2022/03/16 07:53:10;;;;;;;;;;;0.70;81.30;;;-0.67;76.75;96809.34;4049284;34;20198;-85
2022/03/16 07:55:39;;;;;;;;;;;0.70;81.20;;;-0.70;76.83;96804.31;4022992;34;19904;-85
2022/03/16 07:58:07;;;;;;;;;;;0.70;81.20;;;-0.68;76.66;96802.28;4023142;34;20467;-85
2022/03/16 08:00:36;;;;;;;;;;;0.70;81.10;;;-0.66;76.81;96791.38;4045735;34;20228;-84
2022/03/16 08:03:05;;;;;;;;;;;0.70;81.10;;;-0.68;76.82;96794.22;4046124;34;20183;-85
2022/03/16 08:05:35;;;;;;;;;;;0.70;81.10;;;-0.66;76.84;96800.25;4023129;34;20123;-84
2022/03/16 08:08:04;;;;;;;;;;;0.70;81.10;;;-0.66;76.69;96800.25;4022878;34;19909;-85
2022/03/16 08:10:32;;;;;;;;;;;0.80;81.00;;;-0.65;76.57;96795.72;4024992;34;19910;-84
2022/03/16 08:13:01;;;;;;;;;;;0.70;81.00;;;-0.65;76.85;96791.19;4047460;34;20239;-85
2022/03/16 08:15:29;;;;;;;;;;;0.70;81.20;;;-0.65;76.80;96791.19;4024630;34;20211;-85
2022/03/16 08:17:58;;;;;;;;;;;0.70;80.90;;;-0.65;76.73;96796.56;4024208;34;20249;-84
2022/03/16 08:20:26;;;;;;;;;;;0.80;80.90;;;-0.67;76.49;96785.16;4024885;34;20127;-84
2022/03/16 08:22:57;;;;;;;;;;;0.80;80.90;;;-0.64;76.57;96800.06;4025899;34;20270;-85
2022/03/16 08:25:26;;;;;;;;;;;0.70;80.90;;;-0.65;76.76;96801.94;4025062;34;20228;-84
2022/03/16 08:27:54;;;;;;;;;;;0.70;80.90;;;-0.64;76.75;96802.75;4002917;34;20157;-84
2022/03/16 08:30:23;;;;;;;;;;;0.70;80.90;;;-0.64;76.40;96800.91;4047656;34;20238;-85
2022/03/16 08:32:51;;;;;;;;;;;0.80;80.90;;;-0.64;76.67;96798.22;4031259;34;20086;-84
2022/03/16 08:35:23;;;;;;;;;;;0.80;80.90;;;-0.63;76.63;96801.72;4044411;34;20395;-84
2022/03/16 08:37:51;;;;;;;;;;;0.80;80.90;;;-0.64;76.79;96798.22;4035728;34;19904;-84
2022/03/16 08:40:21;;;;;;;;;;;0.80;80.80;;;-0.64;76.87;96795.53;4057690;34;20539;-85
2022/03/16 08:42:52;;;;;;;;;;;0.70;80.90;;;-0.63;76.72;96794.53;4037910;34;20592;-85
2022/03/16 08:45:20;;;;;;;;;;;0.70;80.90;;;-0.62;76.46;96787.28;4060261;34;20474;-84
2022/03/16 08:47:49;;;;;;;;;;;0.80;80.80;;;-0.62;76.29;96784.59;4057906;34;19911;-85
2022/03/16 08:50:17;;;;;;;;;;;0.80;80.70;;;-0.62;76.26;96781.91;4035580;34;20214;-85
2022/03/16 08:52:47;;;;;;;;;;;0.80;80.70;;;-0.62;76.51;96784.59;4057505;34;19904;-84
2022/03/16 08:55:16;;;;;;;;;;;0.80;80.70;;;-0.63;76.41;96789.13;4049051;34;19952;-84
2022/03/16 08:57:46;;;;;;;;;;;0.80;80.70;;;-0.63;76.40;96783.75;4008239;34;20067;-85
2022/03/16 09:00:18;;;;;;;;;;;0.80;80.70;;;-0.62;76.10;96782.75;4030721;34;20223;-85
2022/03/16 09:02:47;;;;;;;;;;;0.80;80.70;;;-0.62;76.43;96780.06;4029327;34;19905;-85
2022/03/16 09:05:17;;;;;;;;;;;0.80;80.60;;;-0.60;76.17;96776.34;4037379;34;20229;-84
2022/03/16 09:07:48;;;;;;;;;;;0.80;80.60;;;-0.62;76.43;96774.69;4057945;34;19904;-85
2022/03/16 09:10:17;;;;;;;;;;;0.80;80.60;;;-0.63;75.97;96766.78;4058996;34;19904;-85
2022/03/16 09:12:47;;;;;;;;;;;0.80;80.60;;;-0.60;76.21;96781.72;4052204;34;20317;-83
2022/03/16 09:15:15;;;;;;;;;;;0.80;80.60;;;-0.62;76.28;96774.69;4047044;34;20522;-85
2022/03/16 09:17:44;;;;;;;;;;;0.80;80.60;;;-0.64;75.84;96774.03;4002137;34;19904;-84
2022/03/16 09:20:12;;;;;;;;;;;0.80;80.60;;;-0.60;76.00;96776.34;4047064;34;20484;-84
2022/03/16 09:22:41;;;;;;;;;;;0.80;80.60;;;-0.60;76.36;96781.72;4024462;34;20060;-85
2022/03/16 09:25:10;;;;;;;;;;;0.80;80.60;;;-0.60;76.54;96782.56;4022479;34;20197;-85
2022/03/16 09:27:38;;;;;;;;;;;0.80;80.50;;;-0.59;76.13;96775.34;4020920;34;20512;-85
2022/03/16 09:30:12;;;;;;;;;;;0.80;80.50;;;-0.59;76.31;96772.66;4020393;34;23883;-84
2022/03/16 09:32:40;;;;;;;;;;;0.80;80.50;;;-0.60;76.47;96785.25;4068644;34;20200;-85
2022/03/16 09:35:09;;;;;;;;;;;0.80;80.50;;;-0.63;75.98;96773.00;4046077;34;20211;-84
2022/03/16 09:37:40;;;;;;;;;;;0.80;80.50;;;-0.59;76.30;96773.47;4046426;34;20274;-84
2022/03/16 09:40:10;;;;;;;;;;;0.80;80.50;;;-0.60;75.76;96771.78;4047575;34;20217;-84
2022/03/16 09:42:39;;;;;;;;;;;0.80;80.50;;;-0.59;76.21;96772.66;4047004;34;20214;-84
2022/03/16 09:45:11;;;;;;;;;;;0.80;80.50;;;-0.59;76.38;96775.34;4070737;34;20189;-84
2022/03/16 09:47:39;;;;;;;;;;;0.80;80.50;;;-0.59;76.41;96769.94;4047110;34;20215;-84
2022/03/16 09:50:10;;;;;;;;;;;0.80;80.50;;;-0.59;76.19;96761.88;4047486;34;19911;-84
2022/03/16 09:52:39;;;;;;;;;;;0.80;81.20;;;-0.60;76.11;96762.91;4025901;34;19904;-84
2022/03/16 09:55:08;;;;;;;;;;;0.80;80.50;;;-0.59;76.32;96764.56;4047725;34;19904;-84
2022/03/16 09:57:37;;;;;;;;;;;0.80;80.50;;;-0.58;76.22;96764.38;4049092;34;20518;-84
2022/03/16 10:00:07;;;;;;;;;;;0.80;80.50;;;-0.59;76.16;96769.94;4053040;34;20204;-84
2022/03/16 10:02:37;;;;;;;;;;;0.80;80.50;;;-0.62;76.36;96761.22;4055333;34;19945;-85
2022/03/16 10:05:09;;;;;;;;;;;0.80;80.40;;;-0.59;76.50;96762.72;4054700;34;20235;-86
2022/03/16 10:07:37;;;;;;;;;;;0.80;80.50;;;-0.62;75.96;96755.84;4027097;34;20206;-84
2022/03/16 10:13:17;;;;;;;;;;;0.80;80.60;;;-0.60;76.17;96744.91;4050731;34;19911;-85
2022/03/16 10:15:45;;;;;;;;;;;0.80;80.50;;;-0.58;75.97;96752.81;4052301;34;20210;-84
2022/03/16 10:18:18;;;;;;;;;;;0.80;80.50;;;-0.58;76.46;96750.13;4053050;34;20218;-84
2022/03/16 10:20:47;;;;;;;;;;;0.80;80.40;;;-0.59;76.26;96751.13;4058429;34;20303;-84
2022/03/16 10:23:17;;;;;;;;;;;0.80;80.50;;;-0.59;76.32;96753.81;4058428;34;19915;-84
2022/03/16 10:25:47;;;;;;;;;;;0.80;80.50;;;-0.59;75.97;96757.34;4053445;34;20232;-84
2022/03/16 10:28:21;;;;;;;;;;;0.80;80.50;;;-0.60;76.37;96752.97;4051353;34;19908;-85
2022/03/16 10:30:59;;;;;;;;;;;0.80;80.50;;;-0.59;76.57;96751.13;4030412;34;20212;-84
2022/03/16 10:33:33;;;;;;;;;;;0.80;80.40;;;-0.60;76.28;96750.28;4051775;34;20221;-84
2022/03/16 10:36:04;;;;;;;;;;;0.80;80.40;;;-0.62;76.16;96747.78;4051177;34;19988;-86
2022/03/16 10:38:38;;;;;;;;;;;0.80;80.50;;;-0.59;76.45;96751.13;4051524;34;19904;-85
2022/03/16 10:46:55;;;;;;;;;;;0.80;80.40;;;-0.59;76.10;96729.63;4004452;34;20236;-85
2022/03/16 10:49:26;;;;;;;;;;;0.80;80.50;;;-0.61;76.31;96724.41;4052007;34;19933;-85
2022/03/16 10:52:05;;;;;;;;;;;0.80;80.50;;;-0.61;76.14;96721.72;4052137;34;19905;-84
2022/03/16 10:54:39;;;;;;;;;;;0.80;80.60;;;-0.60;76.57;96718.00;4030710;34;20201;-84
2022/03/16 10:57:33;;;;;;;;;;;0.80;80.60;;;-0.60;76.46;96706.44;4051812;34;19920;-86
2022/03/16 11:00:16;;;;;;;;;;;0.80;80.70;;;-0.60;76.33;96718.00;3957687;35;19906;-83
2022/03/16 11:02:48;;;;;;;;;;;0.80;80.60;;;-0.59;76.55;96722.38;4022530;34;20220;-84
2022/03/16 11:05:20;;;;;;;;;;;0.80;80.50;;;-0.60;76.17;96727.94;4034763;34;19904;-84
2022/03/16 11:07:49;;;;;;;;;;;0.80;80.50;;;-0.59;76.33;96729.63;4034339;34;20199;-84
2022/03/16 11:10:18;;;;;;;;;;;0.80;80.50;;;-0.59;76.51;96724.25;4057223;34;19904;-85
2022/03/16 11:15:32;;;;;;;;;;;0.80;80.60;;;-0.59;76.08;96724.25;4010062;34;20259;-85
2022/03/16 11:18:01;;;;;;;;;;;0.80;80.50;;;-0.59;75.85;96724.25;4010561;34;19909;-85
2022/03/16 11:20:33;;;;;;;;;;;0.80;80.50;;;-0.60;75.87;96722.56;4008980;34;20045;-85
2022/03/16 11:25:59;;;;;;;;;;;0.80;80.50;;;-0.60;76.24;96727.94;4060774;34;19911;-85
2022/03/16 11:28:38;;;;;;;;;;;0.80;80.50;;;-0.59;76.57;96721.56;4083016;34;20556;-87
2022/03/16 11:31:09;;;;;;;;;;;0.80;80.50;;;-0.60;75.97;96727.94;4061852;34;20221;-85
2022/03/16 11:33:49;;;;;;;;;;;0.80;80.40;;;-0.61;76.18;96724.41;4061564;34;19904;-83
2022/03/16 11:36:34;;;;;;;;;;;0.80;80.50;;;-0.60;76.21;96720.69;4060263;34;20207;-85
2022/03/16 11:39:06;;;;;;;;;;;0.80;80.60;;;-0.59;75.98;96726.94;4039958;34;19905;-84
2022/03/16 11:41:35;;;;;;;;;;;0.80;80.50;;;-0.62;76.46;96720.91;4012398;34;20174;-84
2022/03/16 11:44:29;;;;;;;;;;;0.80;80.60;;;-0.60;76.09;96728.78;4055111;34;20212;-84
2022/03/16 11:47:35;;;;;;;;;;;0.80;80.50;;;-0.60;76.50;96727.94;4032805;34;20196;-84
2022/03/16 11:50:21;;;;;;;;;;;0.80;80.50;;;-0.60;76.10;96727.94;4009701;34;20475;-84
2022/03/16 11:53:04;;;;;;;;;;;0.80;80.40;;;-0.60;76.13;96734.16;4009573;34;19905;-85